Time;durP1;ratioP1;P1;durP2;ratioP2;P2;SDS_P1;SDS_P2;PMS_P1;PMS_P2;Temp;Humidity;BMP_temperature;BMP_pressure;BME280_temperature;BME280_humidity;BME280_pressure;Samples;Min_cycle;Max_cycle;Signal;HPM_P1;HPM_P2
2023/04/05 00:01:31;;;;;;;9.55;4.88;;;;;;;;;;5048103;28;20052;-67
2023/04/05 00:03:58;;;;;;;9.32;4.28;;;;;;;;;;5049072;28;20036;-66
2023/04/05 00:06:25;;;;;;;8.63;4.30;;;;;;;;;;5047512;28;20244;-66
2023/04/05 00:08:56;;;;;;;8.45;4.68;;;;;;;;;;5032883;28;20481;-67
2023/04/05 00:11:22;;;;;;;6.28;3.80;;;;;;;;;;5031940;28;20474;-66
2023/04/05 00:13:49;;;;;;;10.63;4.60;;;;;;;;;;5044689;28;20047;-67
2023/04/05 00:16:16;;;;;;;6.43;4.10;;;;;;;;;;5058275;28;20471;-67
2023/04/05 00:18:48;;;;;;;11.82;4.18;;;;;;;;;;5056390;28;20033;-66
2023/04/05 00:21:21;;;;;;;6.80;4.57;;;;;;;;;;5012218;28;20040;-67
2023/04/05 00:23:52;;;;;;;11.75;4.85;;;;;;;;;;5044306;28;20051;-67
2023/04/05 00:26:18;;;;;;;6.28;4.18;;;;;;;;;;5050307;28;20043;-66
2023/04/05 00:28:45;;;;;;;7.50;4.00;;;;;;;;;;5053569;28;20044;-67
2023/04/05 00:31:11;;;;;;;10.50;4.60;;;;;;;;;;5010607;28;20446;-66
2023/04/05 00:33:37;;;;;;;9.77;4.40;;;;;;;;;;5048103;28;20070;-66
2023/04/05 00:36:14;;;;;;;7.65;4.13;;;;;;;;;;5030537;28;20037;-68
2023/04/05 00:38:41;;;;;;;7.68;4.35;;;;;;;;;;5049130;28;20408;-66
2023/04/05 00:41:07;;;;;;;5.43;3.45;;;;;;;;;;5048608;28;20535;-66
2023/04/05 00:43:34;;;;;;;5.95;4.13;;;;;;;;;;5042882;28;20045;-66
2023/04/05 00:46:01;;;;;;;6.18;4.47;;;;;;;;;;5050210;28;20465;-66
2023/04/05 00:48:28;;;;;;;8.52;5.25;;;;;;;;;;5046913;28;20389;-66
2023/04/05 00:50:54;;;;;;;11.98;5.32;;;;;;;;;;5051072;28;20624;-67
2023/04/05 00:53:21;;;;;;;9.05;4.75;;;;;;;;;;5044532;28;20048;-66
2023/04/05 00:55:47;;;;;;;7.15;4.10;;;;;;;;;;5036392;28;20048;-66
2023/04/05 00:58:18;;;;;;;7.72;4.43;;;;;;;;;;5032206;28;20044;-67
2023/04/05 01:01:08;;;;;;;8.07;4.28;;;;;;;;;;5050931;28;20113;-67
2023/04/05 01:03:35;;;;;;;8.23;4.55;;;;;;;;;;5053346;28;20114;-67
2023/04/05 01:06:08;;;;;;;8.65;3.88;;;;;;;;;;5033999;28;20090;-67
2023/04/05 01:08:45;;;;;;;7.43;4.53;;;;;;;;;;5046336;28;20041;-67
2023/04/05 01:11:11;;;;;;;8.25;4.00;;;;;;;;;;5029613;28;20069;-67
2023/04/05 01:13:37;;;;;;;8.13;5.03;;;;;;;;;;5058108;28;20040;-67
2023/04/05 01:16:04;;;;;;;9.50;3.97;;;;;;;;;;5025050;28;20086;-67
2023/04/05 01:18:31;;;;;;;7.32;4.22;;;;;;;;;;5047241;28;20406;-67
2023/04/05 01:21:19;;;;;;;9.25;4.47;;;;;;;;;;5043049;28;20043;-67
2023/04/05 01:24:15;;;;;;;7.97;4.15;;;;;;;;;;5046330;28;20044;-67
2023/04/05 01:26:57;;;;;;;6.82;4.38;;;;;;;;;;4941754;28;20058;-66
2023/04/05 01:29:23;;;;;;;8.20;3.92;;;;;;;;;;5028264;28;20068;-67
2023/04/05 01:31:58;;;;;;;8.00;4.47;;;;;;;;;;5033128;28;20044;-67
2023/04/05 01:34:40;;;;;;;7.47;3.97;;;;;;;;;;5035276;28;20043;-67
2023/04/05 01:37:08;;;;;;;8.88;4.15;;;;;;;;;;5052741;28;20035;-68
2023/04/05 01:39:35;;;;;;;6.78;3.83;;;;;;;;;;5030184;28;20045;-68
2023/04/05 01:42:02;;;;;;;10.45;4.53;;;;;;;;;;5039020;28;20701;-68
2023/04/05 01:44:28;;;;;;;6.75;4.38;;;;;;;;;;5051266;28;20522;-65
2023/04/05 01:46:55;;;;;;;6.68;4.43;;;;;;;;;;5052041;28;20036;-67
2023/04/05 01:49:21;;;;;;;7.80;4.60;;;;;;;;;;5055999;28;20123;-67
2023/04/05 01:51:47;;;;;;;10.02;5.03;;;;;;;;;;5011988;28;20052;-66
2023/04/05 01:54:13;;;;;;;7.40;4.68;;;;;;;;;;5035492;28;20057;-67
2023/04/05 01:56:39;;;;;;;6.68;4.18;;;;;;;;;;5049202;28;20041;-67
2023/04/05 01:59:06;;;;;;;6.25;3.95;;;;;;;;;;5053441;28;20127;-67
2023/04/05 02:01:32;;;;;;;6.95;3.95;;;;;;;;;;5051545;28;20052;-66
2023/04/05 02:03:58;;;;;;;8.30;4.85;;;;;;;;;;5045603;28;20049;-67
2023/04/05 02:06:25;;;;;;;7.75;4.43;;;;;;;;;;5049439;28;20414;-67
2023/04/05 02:08:51;;;;;;;12.05;4.75;;;;;;;;;;5037541;28;20044;-67
2023/04/05 02:11:17;;;;;;;10.85;4.53;;;;;;;;;;5049481;28;20086;-67
2023/04/05 02:13:43;;;;;;;8.23;5.15;;;;;;;;;;5049454;28;20132;-66
2023/04/05 02:16:09;;;;;;;5.72;4.32;;;;;;;;;;5055813;28;20504;-66
2023/04/05 02:18:37;;;;;;;9.05;4.93;;;;;;;;;;5059272;28;20056;-66
2023/04/05 02:21:09;;;;;;;6.28;4.45;;;;;;;;;;5026975;28;20048;-66
2023/04/05 02:23:38;;;;;;;5.72;3.67;;;;;;;;;;5040662;28;20044;-67
2023/04/05 02:26:04;;;;;;;8.63;4.95;;;;;;;;;;5029574;28;20041;-66
2023/04/05 02:28:30;;;;;;;11.30;4.28;;;;;;;;;;5057166;28;20052;-66
2023/04/05 02:30:56;;;;;;;6.90;4.28;;;;;;;;;;5029440;28;20044;-66
2023/04/05 02:33:22;;;;;;;9.40;5.43;;;;;;;;;;5051147;28;20076;-66
2023/04/05 02:35:49;;;;;;;7.85;4.75;;;;;;;;;;5051845;28;20051;-66
2023/04/05 02:38:15;;;;;;;7.88;4.60;;;;;;;;;;5052217;28;20049;-66
2023/04/05 02:40:41;;;;;;;8.60;4.90;;;;;;;;;;5030537;28;20057;-67
2023/04/05 02:43:07;;;;;;;6.10;3.97;;;;;;;;;;5048130;28;20116;-67
2023/04/05 02:45:33;;;;;;;7.38;4.63;;;;;;;;;;5033575;28;20505;-66
2023/04/05 02:47:59;;;;;;;5.57;3.70;;;;;;;;;;5032268;28;20040;-66
2023/04/05 02:50:26;;;;;;;10.25;4.63;;;;;;;;;;5027517;28;20064;-66
2023/04/05 02:52:52;;;;;;;10.48;4.30;;;;;;;;;;5035907;28;20110;-66
2023/04/05 02:55:18;;;;;;;7.38;5.05;;;;;;;;;;5050818;28;20036;-67
2023/04/05 02:57:44;;;;;;;9.75;5.22;;;;;;;;;;5052551;28;20041;-67
2023/04/05 03:00:11;;;;;;;9.18;5.40;;;;;;;;;;5033721;28;20076;-66
2023/04/05 03:02:38;;;;;;;12.23;5.07;;;;;;;;;;5037692;28;20509;-66
2023/04/05 03:05:06;;;;;;;7.65;5.22;;;;;;;;;;5053304;28;20041;-66
2023/04/05 03:07:34;;;;;;;10.32;5.85;;;;;;;;;;5049274;28;20044;-67
2023/04/05 03:10:01;;;;;;;7.10;4.80;;;;;;;;;;5052406;28;20040;-66
2023/04/05 03:12:27;;;;;;;7.05;4.95;;;;;;;;;;5053826;28;20037;-66
2023/04/05 03:14:53;;;;;;;5.78;4.10;;;;;;;;;;5054782;28;20048;-66
2023/04/05 03:17:19;;;;;;;6.65;4.20;;;;;;;;;;5051573;28;20587;-66
2023/04/05 03:19:45;;;;;;;9.82;5.30;;;;;;;;;;5050300;28;20478;-66
2023/04/05 03:22:11;;;;;;;10.52;4.88;;;;;;;;;;5005982;28;20052;-66
2023/04/05 03:24:38;;;;;;;8.15;5.03;;;;;;;;;;5055182;28;20063;-66
2023/04/05 03:27:05;;;;;;;9.38;5.13;;;;;;;;;;5033913;28;20525;-66
2023/04/05 03:29:31;;;;;;;10.00;5.68;;;;;;;;;;5048810;28;20049;-66
2023/04/05 03:32:00;;;;;;;11.95;5.20;;;;;;;;;;5022234;28;20071;-66
2023/04/05 03:34:27;;;;;;;11.43;5.93;;;;;;;;;;5029410;28;20043;-67
2023/04/05 03:36:54;;;;;;;7.78;5.10;;;;;;;;;;5028823;28;20041;-66
2023/04/05 03:39:20;;;;;;;10.18;5.45;;;;;;;;;;5030935;28;20094;-67
2023/04/05 03:41:46;;;;;;;9.55;5.55;;;;;;;;;;5033882;28;20040;-67
2023/04/05 03:44:13;;;;;;;8.77;4.80;;;;;;;;;;5050798;28;20047;-67
2023/04/05 03:46:39;;;;;;;7.22;4.50;;;;;;;;;;5048347;28;20076;-67
2023/04/05 03:49:06;;;;;;;7.35;4.90;;;;;;;;;;5017006;28;20051;-67
2023/04/05 03:51:32;;;;;;;8.48;5.30;;;;;;;;;;5033363;28;20037;-67
2023/04/05 03:53:58;;;;;;;9.80;4.57;;;;;;;;;;5032169;28;20671;-67
2023/04/05 03:56:24;;;;;;;11.00;5.60;;;;;;;;;;5019064;28;20132;-67
2023/04/05 03:58:52;;;;;;;7.95;5.93;;;;;;;;;;5030354;28;20045;-67
2023/04/05 04:01:18;;;;;;;9.00;5.53;;;;;;;;;;5030281;28;20051;-67
2023/04/05 04:03:44;;;;;;;9.95;5.68;;;;;;;;;;5027154;28;20046;-67
2023/04/05 04:06:11;;;;;;;10.52;5.20;;;;;;;;;;5013962;28;20049;-67
2023/04/05 04:08:37;;;;;;;9.05;5.18;;;;;;;;;;5021016;28;20041;-68
2023/04/05 04:11:03;;;;;;;7.68;5.10;;;;;;;;;;5017691;28;20045;-67
2023/04/05 04:13:29;;;;;;;8.63;5.35;;;;;;;;;;5023504;28;20502;-67
2023/04/05 04:15:56;;;;;;;9.32;5.20;;;;;;;;;;5031475;28;20041;-67
2023/04/05 04:18:22;;;;;;;12.23;5.40;;;;;;;;;;5031152;28;20167;-67
2023/04/05 04:20:48;;;;;;;7.85;5.63;;;;;;;;;;5023373;28;20038;-67
2023/04/05 04:23:15;;;;;;;9.25;5.43;;;;;;;;;;5030666;28;20047;-67
2023/04/05 04:25:44;;;;;;;10.35;5.78;;;;;;;;;;5028204;28;20227;-67
2023/04/05 04:28:11;;;;;;;11.55;5.50;;;;;;;;;;5002957;28;20053;-67
2023/04/05 04:30:37;;;;;;;12.27;5.97;;;;;;;;;;5027598;28;20038;-68
2023/04/05 04:33:06;;;;;;;11.25;5.95;;;;;;;;;;5026595;28;20299;-67
2023/04/05 04:35:33;;;;;;;7.55;5.43;;;;;;;;;;5026978;28;20454;-66
2023/04/05 04:38:03;;;;;;;8.38;5.80;;;;;;;;;;5031225;28;20038;-67
2023/04/05 04:40:37;;;;;;;8.70;5.13;;;;;;;;;;5028786;28;20037;-67
2023/04/05 04:43:04;;;;;;;12.63;6.00;;;;;;;;;;5031826;28;20741;-66
2023/04/05 04:45:33;;;;;;;7.88;5.82;;;;;;;;;;5011255;28;20049;-66
2023/04/05 04:48:00;;;;;;;10.77;6.30;;;;;;;;;;5029848;28;20041;-66
2023/04/05 04:50:26;;;;;;;11.88;6.45;;;;;;;;;;5027836;28;20048;-67
2023/04/05 04:52:52;;;;;;;10.90;7.20;;;;;;;;;;5042870;28;20088;-67
2023/04/05 04:55:23;;;;;;;7.95;5.55;;;;;;;;;;5044088;28;20497;-68
2023/04/05 04:57:53;;;;;;;11.10;6.38;;;;;;;;;;5025768;28;20111;-68
2023/04/05 05:00:20;;;;;;;13.82;6.32;;;;;;;;;;5025199;28;20033;-68
2023/04/05 05:02:46;;;;;;;9.02;6.72;;;;;;;;;;5046789;28;20110;-67
2023/04/05 05:05:12;;;;;;;12.45;6.95;;;;;;;;;;5015908;28;20517;-67
2023/04/05 05:07:42;;;;;;;9.73;6.03;;;;;;;;;;5022568;28;20040;-67
2023/04/05 05:10:09;;;;;;;11.65;7.20;;;;;;;;;;5028074;28;20374;-67
2023/04/05 05:12:35;;;;;;;11.02;6.70;;;;;;;;;;5026245;28;20041;-67
2023/04/05 05:15:02;;;;;;;11.75;5.93;;;;;;;;;;5052425;28;20029;-68
2023/04/05 05:17:28;;;;;;;14.60;7.05;;;;;;;;;;5045709;28;20048;-67
2023/04/05 05:19:55;;;;;;;12.50;7.20;;;;;;;;;;5028901;28;20230;-67
2023/04/05 05:22:21;;;;;;;11.68;7.53;;;;;;;;;;5042395;28;20517;-68
2023/04/05 05:24:47;;;;;;;12.15;6.78;;;;;;;;;;5019345;28;20261;-68
2023/04/05 05:27:13;;;;;;;18.50;7.38;;;;;;;;;;5037333;28;20051;-67
2023/04/05 05:29:39;;;;;;;13.27;7.78;;;;;;;;;;5027294;28;20128;-67
2023/04/05 05:32:06;;;;;;;12.93;7.70;;;;;;;;;;5023815;28;20068;-67
2023/04/05 05:34:32;;;;;;;15.57;7.97;;;;;;;;;;5027378;28;20159;-68
2023/04/05 05:36:58;;;;;;;14.57;8.20;;;;;;;;;;5034358;28;20044;-68
2023/04/05 05:39:25;;;;;;;13.57;8.40;;;;;;;;;;5044758;28;20048;-68
2023/04/05 05:41:51;;;;;;;11.10;7.88;;;;;;;;;;5030416;28;20056;-67
2023/04/05 05:44:17;;;;;;;16.17;8.00;;;;;;;;;;5032000;28;20667;-67
2023/04/05 05:46:43;;;;;;;11.68;8.02;;;;;;;;;;5049035;28;20044;-68
2023/04/05 05:49:10;;;;;;;19.88;9.00;;;;;;;;;;5043133;28;21305;-67
2023/04/05 05:51:36;;;;;;;10.15;7.63;;;;;;;;;;5043540;28;20497;-68
2023/04/05 05:54:03;;;;;;;12.48;8.68;;;;;;;;;;5023088;28;20570;-67
2023/04/05 05:56:30;;;;;;;13.02;8.18;;;;;;;;;;5023318;28;20633;-67
2023/04/05 05:58:56;;;;;;;11.13;7.70;;;;;;;;;;5021879;28;20510;-67
2023/04/05 06:01:26;;;;;;;15.32;8.43;;;;;;;;;;5024608;28;20049;-67
2023/04/05 06:03:53;;;;;;;14.30;8.00;;;;;;;;;;5024454;28;20060;-68
2023/04/05 06:06:19;;;;;;;13.70;7.97;;;;;;;;;;5022344;28;20574;-66
2023/04/05 06:08:46;;;;;;;15.73;9.07;;;;;;;;;;4998237;28;20513;-65
2023/04/05 06:11:20;;;;;;;16.15;8.65;;;;;;;;;;5026909;28;20036;-66
2023/04/05 06:13:46;;;;;;;12.98;7.68;;;;;;;;;;5017703;28;20152;-65
2023/04/05 06:16:12;;;;;;;15.50;8.73;;;;;;;;;;5022918;28;20056;-66
2023/04/05 06:18:38;;;;;;;13.70;8.13;;;;;;;;;;5001780;28;20264;-66
2023/04/05 06:21:05;;;;;;;14.85;8.98;;;;;;;;;;4997678;28;20068;-66
2023/04/05 06:23:31;;;;;;;20.92;11.48;;;;;;;;;;5019671;28;20154;-66
2023/04/05 06:25:57;;;;;;;18.10;9.57;;;;;;;;;;5016928;28;20045;-66
2023/04/05 06:28:23;;;;;;;17.08;9.73;;;;;;;;;;5002168;28;20125;-66
2023/04/05 06:30:49;;;;;;;15.68;9.73;;;;;;;;;;5022209;28;20045;-66
2023/04/05 06:33:16;;;;;;;18.15;10.02;;;;;;;;;;5018374;28;20164;-66
2023/04/05 06:35:42;;;;;;;15.05;10.13;;;;;;;;;;5002067;28;20116;-66
2023/04/05 06:38:08;;;;;;;17.85;10.38;;;;;;;;;;5028968;28;20550;-66
2023/04/05 06:40:34;;;;;;;21.00;11.02;;;;;;;;;;5026845;28;20487;-66
2023/04/05 06:43:01;;;;;;;19.48;10.77;;;;;;;;;;5015312;28;20212;-66
2023/04/05 06:45:27;;;;;;;15.13;10.02;;;;;;;;;;5024060;28;20284;-66
2023/04/05 06:47:53;;;;;;;19.38;11.02;;;;;;;;;;5023800;28;20056;-66
2023/04/05 06:50:19;;;;;;;17.75;10.02;;;;;;;;;;5012240;28;20033;-67
2023/04/05 06:52:45;;;;;;;16.55;9.88;;;;;;;;;;5038816;28;20510;-67
2023/04/05 06:55:11;;;;;;;15.25;10.25;;;;;;;;;;5047572;28;20055;-67
2023/04/05 06:57:37;;;;;;;16.90;11.25;;;;;;;;;;5054893;28;20045;-67
2023/04/05 07:00:09;;;;;;;18.00;10.65;;;;;;;;;;5040785;28;20030;-66
2023/04/05 07:02:35;;;;;;;21.13;10.70;;;;;;;;;;5049811;28;20040;-66
2023/04/05 07:05:04;;;;;;;16.05;10.32;;;;;;;;;;5052954;28;20140;-66
2023/04/05 07:07:32;;;;;;;20.00;11.02;;;;;;;;;;5037687;28;20045;-66
2023/04/05 07:09:58;;;;;;;15.45;9.93;;;;;;;;;;5034892;28;20189;-66
2023/04/05 07:12:24;;;;;;;16.95;10.52;;;;;;;;;;5048422;28;20173;-67
2023/04/05 07:14:50;;;;;;;18.58;11.40;;;;;;;;;;5042493;28;20490;-69
2023/04/05 07:17:16;;;;;;;15.90;10.30;;;;;;;;;;5046470;28;20033;-67
2023/04/05 07:19:43;;;;;;;13.63;9.65;;;;;;;;;;5020242;28;20154;-67
2023/04/05 07:22:09;;;;;;;15.50;10.55;;;;;;;;;;5056334;28;20510;-67
2023/04/05 07:24:35;;;;;;;14.80;10.18;;;;;;;;;;5031253;28;20047;-67
2023/04/05 07:27:02;;;;;;;18.95;10.73;;;;;;;;;;5053669;28;20507;-67
2023/04/05 07:29:29;;;;;;;16.05;10.07;;;;;;;;;;5051604;28;20045;-66
2023/04/05 07:31:55;;;;;;;15.85;10.48;;;;;;;;;;5040891;28;20044;-67
2023/04/05 07:34:21;;;;;;;13.55;9.90;;;;;;;;;;5022128;28;20034;-67
2023/04/05 07:36:49;;;;;;;14.10;10.75;;;;;;;;;;5036135;28;20394;-67
2023/04/05 07:39:15;;;;;;;17.23;10.93;;;;;;;;;;5050258;28;20043;-67
2023/04/05 07:41:41;;;;;;;17.42;10.30;;;;;;;;;;5035579;28;20107;-67
2023/04/05 07:44:07;;;;;;;14.63;9.20;;;;;;;;;;5049890;28;20116;-67
2023/04/05 07:46:34;;;;;;;16.38;9.45;;;;;;;;;;5014138;28;20068;-66
2023/04/05 07:49:00;;;;;;;17.10;9.98;;;;;;;;;;5030988;28;20052;-66
2023/04/05 07:51:26;;;;;;;15.10;9.63;;;;;;;;;;5048985;28;20033;-67
2023/04/05 07:53:52;;;;;;;15.93;9.75;;;;;;;;;;5016477;28;20041;-66
2023/04/05 07:56:18;;;;;;;14.55;9.93;;;;;;;;;;5015187;28;20025;-66
2023/04/05 07:58:46;;;;;;;14.10;9.82;;;;;;;;;;5033010;28;20041;-65
2023/04/05 08:01:12;;;;;;;17.52;9.23;;;;;;;;;;5014185;28;20139;-68
2023/04/05 08:03:38;;;;;;;16.83;9.93;;;;;;;;;;5016648;28;20049;-66
2023/04/05 08:06:11;;;;;;;13.40;9.23;;;;;;;;;;5029603;28;20168;-66
2023/04/05 08:08:37;;;;;;;12.82;9.15;;;;;;;;;;5035523;28;20500;-66
2023/04/05 08:11:03;;;;;;;17.95;9.55;;;;;;;;;;5031351;28;20038;-67
2023/04/05 08:13:29;;;;;;;15.10;10.10;;;;;;;;;;5031669;28;20424;-66
2023/04/05 08:15:56;;;;;;;12.32;9.93;;;;;;;;;;5017280;28;20463;-66
2023/04/05 08:18:22;;;;;;;10.50;8.70;;;8.40;90.90;;;;;;5030670;28;20184;-66
2023/04/05 08:20:53;;;;;;;15.05;9.95;;;5.30;99.90;;;;;;5016229;28;20046;-67
2023/04/05 08:23:20;;;;;;;15.45;9.10;;;;;;;;;;5026767;28;20084;-66
2023/04/05 08:25:46;;;;;;;10.98;8.48;;;;;;;;;;5030273;28;20521;-66
2023/04/05 08:28:12;;;;;;;13.80;9.27;;;;;;;;;;5031959;28;20029;-66
2023/04/05 08:30:38;;;;;;;21.27;9.73;;;;;;;;;;5017608;28;20036;-66
2023/04/05 08:33:05;;;;;;;15.00;8.68;;;;;;;;;;5033492;28;20176;-66
2023/04/05 08:35:31;;;;;;;11.23;8.43;;;;;;;;;;5030963;28;20174;-66
2023/04/05 08:37:57;;;;;;;12.52;8.55;;;;;;;;;;5030764;28;20041;-66
2023/04/05 08:40:43;;;;;;;11.00;7.07;;;;;;;;;;5027538;28;20056;-66
2023/04/05 08:43:27;;;;;;;13.77;9.15;;;;;;;;;;5031686;28;20029;-66
2023/04/05 08:45:55;;;;;;;20.92;8.52;;;;;;;;;;5033021;28;20099;-66
2023/04/05 08:48:21;;;;;;;12.32;7.93;;;;;;;;;;5025932;28;20044;-67
2023/04/05 08:50:51;;;;;;;9.93;7.95;;;5.30;99.90;;;;;;5027425;28;20034;-66
2023/04/05 08:53:18;;;;;;;11.23;7.07;;;6.00;99.90;;;;;;5044914;28;20049;-67
2023/04/05 08:55:50;;;;;;;11.63;7.88;;;6.00;99.90;;;;;;5031863;28;20433;-67
2023/04/05 08:58:17;;;;;;;15.52;7.38;;;6.10;99.90;;;;;;5049685;28;20029;-66
2023/04/05 09:00:43;;;;;;;16.40;7.53;;;6.20;99.90;;;;;;5031002;28;20127;-67
2023/04/05 09:03:16;;;;;;;8.20;6.68;;;6.20;99.90;;;;;;5023815;28;20124;-66
2023/04/05 09:05:45;;;;;;;12.45;8.45;;;6.30;99.90;;;;;;5046529;28;20234;-66
2023/04/05 09:08:12;;;;;;;8.68;6.88;;;6.40;99.90;;;;;;5053116;28;20403;-66
2023/04/05 09:10:39;;;;;;;9.15;6.13;;;6.40;99.90;;;;;;5015829;28;20170;-66
2023/04/05 09:13:05;;;;;;;10.32;6.78;;;6.50;99.90;;;;;;5059869;28;20055;-66
2023/04/05 09:15:31;;;;;;;11.30;7.05;;;6.60;99.90;;;;;;5050818;28;20143;-66
2023/04/05 09:17:57;;;;;;;10.32;7.55;;;6.70;99.90;;;;;;5044891;28;20033;-66
2023/04/05 09:20:23;;;;;;;10.75;7.40;;;6.80;99.90;;;;;;5034012;28;20056;-66
2023/04/05 09:22:48;;;;;;;12.70;8.27;;;6.80;99.90;;;;;;5023530;28;20505;-66
2023/04/05 09:25:35;;;;;;;12.25;7.25;;;;;;;;;;5046121;28;20036;-66
2023/04/05 09:28:04;;;;;;;10.50;7.28;;;6.90;99.90;;;;;;5048870;28;20372;-66
2023/04/05 09:30:31;;;;;;;10.23;7.18;;;;;;;;;;5050968;28;20037;-66
2023/04/05 09:32:57;;;;;;;10.93;7.20;;;;;;;;;;5059269;28;20051;-66
2023/04/05 09:35:24;;;;;;;11.65;7.93;;;;;;;;;;5051532;28;20044;-66
2023/04/05 09:37:57;;;;;;;9.48;6.90;;;;;;;;;;5031669;28;20048;-67
2023/04/05 09:40:24;;;;;;;10.60;6.57;;;;;;;;;;5027342;28;20037;-66
2023/04/05 09:42:52;;;;;;;10.30;6.10;;;;;;;;;;5058083;28;20033;-67
2023/04/05 09:45:18;;;;;;;11.60;6.82;;;;;;;;;;5047031;28;20051;-66
2023/04/05 09:47:53;;;;;;;8.93;6.13;;;;;;;;;;5032522;28;20037;-66
2023/04/05 09:50:20;;;;;;;15.35;7.30;;;;;;;;;;5048492;28;20033;-66
2023/04/05 09:52:47;;;;;;;9.45;6.78;;;;;;;;;;5030775;28;20053;-66
2023/04/05 09:55:13;;;;;;;11.05;7.57;;;;;;;;;;5027814;28;20551;-66
2023/04/05 09:57:41;;;;;;;10.10;7.53;;;7.00;99.90;;;;;;5020139;28;20133;-66
2023/04/05 10:00:18;;;;;;;9.32;7.03;;;;;;;;;;5037236;28;20718;-66
2023/04/05 10:02:46;;;;;;;11.50;7.13;;;;;;;;;;5031151;28;20564;-66
2023/04/05 10:05:14;;;;;;;11.88;7.38;;;;;;;;;;5028033;28;20107;-66
2023/04/05 10:07:41;;;;;;;12.23;7.32;;;;;;;;;;5038059;28;20239;-66
2023/04/05 10:10:11;;;;;;;13.07;6.82;;;;;;;;;;5036571;28;20048;-67
2023/04/05 10:12:40;;;;;;;7.90;6.43;;;;;;;;;;5035917;28;20047;-66
2023/04/05 10:15:07;;;;;;;9.25;6.22;;;7.60;99.90;;;;;;5034373;28;20092;-66
2023/04/05 10:17:52;;;;;;;12.52;7.20;;;8.00;99.90;;;;;;5024329;28;20084;-67
2023/04/05 10:20:27;;;;;;;12.23;7.43;;;8.10;99.90;;;;;;5039093;28;20120;-66
2023/04/05 10:23:04;;;;;;;10.27;7.00;;;8.10;99.90;;;;;;5025792;28;20383;-66
2023/04/05 10:25:38;;;;;;;9.18;6.47;;;8.20;99.90;;;;;;5023898;28;20040;-67
2023/04/05 10:28:26;;;;;;;8.52;6.82;;;8.20;99.90;;;;;;5028879;28;20047;-66
2023/04/05 10:31:03;;;;;;;9.05;5.80;;;8.30;99.90;;;;;;5035980;28;20045;-67
2023/04/05 10:33:52;;;;;;;11.38;6.45;;;8.30;99.90;;;;;;5026541;28;20034;-67
2023/04/05 10:36:50;;;;;;;10.90;6.97;;;8.30;99.90;;;;;;5028485;28;20040;-67
2023/04/05 10:39:24;;;;;;;8.45;6.10;;;8.40;99.90;;;;;;5031310;28;20057;-67
2023/04/05 10:42:07;;;;;;;11.52;6.85;;;8.50;99.90;;;;;;5027195;28;20041;-66
2023/04/05 10:44:35;;;;;;;10.18;6.13;;;8.50;99.90;;;;;;5029934;28;20037;-67
2023/04/05 10:47:02;;;;;;;11.27;6.03;;;8.50;99.90;;;;;;5034832;28;20041;-66
2023/04/05 10:49:42;;;;;;;9.35;5.88;;;;;;;;;;5030151;28;20034;-66
2023/04/05 10:52:09;;;;;;;10.20;7.00;;;;;;;;;;5010307;28;20046;-67
2023/04/05 10:54:35;;;;;;;9.18;5.88;;;;;;;;;;5015129;28;20050;-67
2023/04/05 10:57:05;;;;;;;7.55;5.35;;;;;;;;;;5000155;28;20099;-66
2023/04/05 10:59:32;;;;;;;8.02;5.97;;;;;;;;;;5038766;28;20060;-67
2023/04/05 11:01:59;;;;;;;8.93;6.90;;;;;;;;;;5017823;28;20045;-67
2023/04/05 11:04:25;;;;;;;11.43;6.88;;;;;;;;;;5012353;28;20656;-67
2023/04/05 11:07:10;;;;;;;8.35;6.45;;;;;;;;;;5026274;28;20079;-67
2023/04/05 11:09:36;;;;;;;8.27;6.03;;;;;;;;;;5026214;28;20037;-67
2023/04/05 11:12:02;;;;;;;16.85;5.57;;;;;;;;;;5028135;28;20037;-67
2023/04/05 11:14:38;;;;;;;10.07;5.78;;;;;;;;;;5036336;28;20033;-67
2023/04/05 11:17:23;;;;;;;7.22;5.82;;;;;;;;;;5034250;28;20124;-67
2023/04/05 11:19:51;;;;;;;9.68;5.75;;;;;;;;;;5028817;28;20133;-67
2023/04/05 11:22:29;;;;;;;8.30;6.07;;;;;;;;;;5011568;28;20049;-67
2023/04/05 11:24:57;;;;;;;7.70;6.35;;;;;;;;;;5008626;28;20473;-67
2023/04/05 11:27:30;;;;;;;9.02;5.05;;;8.60;99.90;;;;;;5030612;28;20502;-67
2023/04/05 11:29:57;;;;;;;7.35;4.72;;;;;;;;;;5032801;28;20041;-67
2023/04/05 11:32:23;;;;;;;8.95;5.22;;;9.40;96.10;;;;;;5034637;28;20052;-67
2023/04/05 11:35:03;;;;;;;9.98;5.75;;;9.40;95.60;;;;;;5012972;28;20443;-67
2023/04/05 11:38:00;;;;;;;9.63;6.25;;;9.50;94.60;;;;;;5022884;28;20038;-67
2023/04/05 11:40:39;;;;;;;10.43;6.03;;;9.50;94.50;;;;;;5018165;28;20038;-67
2023/04/05 11:43:07;;;;;;;7.97;6.03;;;9.50;94.10;;;;;;5037361;28;20052;-67
2023/04/05 11:45:35;;;;;;;8.25;5.13;;;9.60;94.70;;;;;;5028871;28;20046;-67
2023/04/05 11:48:12;;;;;;;13.10;6.40;;;9.60;94.40;;;;;;5031274;28;20073;-67
2023/04/05 11:50:42;;;;;;;6.75;4.55;;;9.70;93.30;;;;;;5030335;28;20530;-67
2023/04/05 11:53:12;;;;;;;7.47;5.60;;;9.80;93.40;;;;;;5022544;28;20530;-67
2023/04/05 11:55:45;;;;;;;10.52;6.05;;;9.80;93.40;;;;;;5050762;28;20101;-67
2023/04/05 11:58:15;;;;;;;9.15;5.20;;;9.90;93.10;;;;;;5049996;28;20045;-67
2023/04/05 12:00:41;;;;;;;6.40;5.07;;;9.90;92.60;;;;;;5044951;28;20063;-67
2023/04/05 12:03:14;;;;;;;9.93;6.35;;;9.90;92.80;;;;;;5052085;28;20507;-67
2023/04/05 12:05:50;;;;;;;;;;;9.90;92.40;;;;;;5017705;28;20037;-67
2023/04/05 12:08:17;;;;;;;9.30;6.35;;;10.00;91.40;;;;;;5028060;28;20034;-66
2023/04/05 12:10:43;;;;;;;9.10;6.13;;;10.00;92.60;;;;;;5048778;28;20063;-66
2023/04/05 12:13:09;;;;;;;8.93;5.80;;;10.00;92.20;;;;;;5032151;28;20033;-67
2023/04/05 12:15:39;;;;;;;12.10;5.97;;;10.10;91.90;;;;;;5054034;28;20279;-67
2023/04/05 12:18:12;;;;;;;8.43;6.68;;;;;;;;;;5050158;28;20566;-67
2023/04/05 12:20:38;;;;;;;9.35;6.35;;;;;;;;;;5042848;28;20549;-67
2023/04/05 12:23:04;;;;;;;11.75;6.18;;;10.20;91.70;;;;;;5023997;28;20041;-67
2023/04/05 12:25:31;;;;;;;11.18;6.15;;;10.30;91.70;;;;;;5044936;28;20495;-67
2023/04/05 12:28:03;;;;;;;8.35;6.03;;;10.40;91.30;;;;;;5041540;28;20037;-67
2023/04/05 12:30:35;;;;;;;9.68;5.68;;;10.40;90.70;;;;;;5018603;28;20041;-67
2023/04/05 12:33:10;;;;;;;9.50;6.20;;;10.40;91.00;;;;;;5050672;28;20045;-67
2023/04/05 12:35:35;;;;;;;7.72;5.78;;;10.40;91.10;;;;;;5032484;28;20043;-67
2023/04/05 12:38:04;;;;;;;8.55;6.07;;;10.50;90.90;;;;;;5051936;28;20444;-67
2023/04/05 12:40:31;;;;;;;10.50;6.15;;;10.50;90.60;;;;;;5029103;28;20542;-66
2023/04/05 12:43:05;;;;;;;8.30;5.95;;;10.60;90.50;;;;;;5046234;28;20500;-67
2023/04/05 12:45:38;;;;;;;11.80;6.00;;;10.60;89.40;;;;;;5018079;28;20080;-67
2023/04/05 12:48:09;;;;;;;10.68;6.13;;;10.60;89.70;;;;;;5045203;28;20045;-67
2023/04/05 12:50:45;;;;;;;8.23;5.38;;;10.60;88.80;;;;;;5046941;28;20061;-67
2023/04/05 12:53:22;;;;;;;9.32;5.88;;;10.60;87.30;;;;;;5029209;28;20049;-67
2023/04/05 12:55:55;;;;;;;7.25;5.25;;;10.70;88.40;;;;;;5048373;28;20402;-67
2023/04/05 12:58:35;;;;;;;6.85;4.85;;;10.70;87.70;;;;;;5035679;28;20037;-67
2023/04/05 13:01:02;;;;;;;8.57;5.15;;;10.70;86.50;;;;;;5047231;28;20052;-67
2023/04/05 13:03:28;;;;;;;11.15;5.80;;;10.70;87.10;;;;;;5036716;28;20513;-67
2023/04/05 13:05:54;;;;;;;6.97;4.95;;;10.70;85.60;;;;;;5054631;28;20402;-67
2023/04/05 13:08:20;;;;;;;11.23;5.25;;;10.70;85.00;;;;;;5051764;28;20044;-67
2023/04/05 13:10:47;;;;;;;8.30;4.45;;;10.70;84.70;;;;;;5047870;28;20399;-67
2023/04/05 13:13:15;;;;;;;9.35;5.32;;;10.80;83.50;;;;;;5046355;28;20044;-67
2023/04/05 13:15:41;;;;;;;7.68;5.68;;;10.90;84.80;;;;;;5030625;28;20462;-67
2023/04/05 13:18:07;;;;;;;8.73;6.60;;;10.90;85.70;;;;;;5050427;28;20064;-67
2023/04/05 13:20:33;;;;;;;11.60;6.10;;;11.00;85.60;;;;;;5046673;28;20549;-65
2023/04/05 13:22:59;;;;;;;9.85;6.50;;;10.90;84.90;;;;;;5030611;28;20033;-66
2023/04/05 13:25:25;;;;;;;9.98;6.05;;;11.00;85.60;;;;;;5044609;28;20123;-66
2023/04/05 13:27:51;;;;;;;8.68;5.30;;;11.00;84.70;;;;;;5048424;28;20041;-66
2023/04/05 13:30:17;;;;;;;9.88;5.13;;;11.00;85.20;;;;;;5044652;28;20354;-66
2023/04/05 13:32:43;;;;;;;6.85;5.53;;;11.10;84.50;;;;;;5045983;28;20183;-66
2023/04/05 13:35:09;;;;;;;6.97;5.30;;;11.00;82.30;;;;;;5055011;28;20516;-67
2023/04/05 13:37:35;;;;;;;9.48;5.90;;;11.00;81.80;;;;;;5010906;28;20142;-67
2023/04/05 13:40:01;;;;;;;9.52;5.38;;;11.00;80.90;;;;;;5039805;28;20037;-67
2023/04/05 13:42:27;;;;;;;7.90;5.55;;;11.00;81.30;;;;;;5044184;28;20033;-66
2023/04/05 13:44:53;;;;;;;6.63;5.70;;;11.00;81.80;;;;;;5032767;28;20048;-66
2023/04/05 13:47:18;;;;;;;10.77;6.45;;;11.10;82.80;;;;;;5044870;28;20068;-66
2023/04/05 13:49:45;;;;;;;8.00;5.70;;;11.20;83.00;;;;;;5044761;28;20048;-67
2023/04/05 13:52:11;;;;;;;8.02;5.85;;;11.20;83.20;;;;;;5044265;28;20052;-67
2023/04/05 13:54:36;;;;;;;7.53;5.95;;;11.20;82.70;;;;;;5052787;28;20140;-67
2023/04/05 13:57:03;;;;;;;8.25;6.22;;;11.20;82.20;;;;;;5027725;28;20128;-67
2023/04/05 13:59:29;;;;;;;11.43;5.50;;;11.20;81.90;;;;;;5047072;28;20423;-67
2023/04/05 14:01:55;;;;;;;8.25;5.60;;;11.30;82.70;;;;;;5032195;28;20142;-67
2023/04/05 14:04:21;;;;;;;9.20;5.35;;;11.30;82.60;;;;;;5037470;28;20049;-67
2023/04/05 14:06:46;;;;;;;9.48;5.93;;;11.30;82.50;;;;;;5045489;28;20132;-68
2023/04/05 14:09:12;;;;;;;10.52;5.63;;;11.30;81.40;;;;;;5054914;28;20052;-67